Time;durP1;ratioP1;P1;durP2;ratioP2;P2;SDS_P1;SDS_P2;PMS_P1;PMS_P2;Temp;Humidity;BMP_temperature;BMP_pressure;BME280_temperature;BME280_humidity;BME280_pressure;Samples;Min_cycle;Max_cycle;Signal;HPM_P1;HPM_P2
2024/01/15 00:01:16;;;;;;;5.17;4.67;;;2.20;99.90;;;;;;5039560;28;20225;-62
2024/01/15 00:03:44;;;;;;;5.40;4.67;;;2.20;99.90;;;;;;5044893;28;20232;-62
2024/01/15 00:06:15;;;;;;;5.10;4.60;;;2.10;99.90;;;;;;5039517;28;20256;-62
2024/01/15 00:08:44;;;;;;;5.70;4.63;;;2.10;99.90;;;;;;5043926;28;20695;-62
2024/01/15 00:11:12;;;;;;;5.20;4.30;;;2.10;99.90;;;;;;5043246;28;20227;-62
2024/01/15 00:13:41;;;;;;;4.40;4.00;;;2.10;99.90;;;;;;5043537;28;20196;-62
2024/01/15 00:16:11;;;;;;;5.03;4.23;;;2.10;99.90;;;;;;5044458;28;20216;-62
2024/01/15 00:18:40;;;;;;;4.93;4.20;;;2.10;99.90;;;;;;5042414;28;20227;-62
2024/01/15 00:21:08;;;;;;;4.00;3.77;;;2.10;99.90;;;;;;5045384;28;20782;-62
2024/01/15 00:23:36;;;;;;;5.40;4.13;;;2.10;99.90;;;;;;5041406;28;20225;-62
2024/01/15 00:26:05;;;;;;;5.90;4.40;;;2.10;99.90;;;;;;5044594;28;20644;-62
2024/01/15 00:28:37;;;;;;;5.37;4.07;;;2.10;99.90;;;;;;5045014;28;20200;-62
2024/01/15 00:31:06;;;;;;;4.33;4.00;;;2.10;99.90;;;;;;5043725;28;20216;-62
2024/01/15 00:33:36;;;;;;;5.97;4.13;;;2.20;99.90;;;;;;5038682;28;20236;-62
2024/01/15 00:36:05;;;;;;;4.83;4.20;;;2.20;99.90;;;;;;5044715;28;20232;-62
2024/01/15 00:38:34;;;;;;;5.00;4.07;;;2.20;99.90;;;;;;5038677;28;20224;-62
2024/01/15 00:41:02;;;;;;;5.10;4.20;;;2.20;99.90;;;;;;5041308;28;20405;-62
2024/01/15 00:43:31;;;;;;;4.13;3.80;;;2.20;99.90;;;;;;5041701;28;20996;-62
2024/01/15 00:45:59;;;;;;;3.77;3.47;;;2.20;99.90;;;;;;5042825;28;20228;-62
2024/01/15 00:48:27;;;;;;;5.37;3.90;;;2.20;99.90;;;;;;5039720;28;20623;-62
2024/01/15 00:50:57;;;;;;;5.37;3.83;;;2.30;99.90;;;;;;5041566;28;20271;-62
2024/01/15 00:53:26;;;;;;;6.63;4.17;;;2.30;99.90;;;;;;5039831;28;20229;-62
2024/01/15 00:55:54;;;;;;;4.10;3.80;;;2.30;99.90;;;;;;5043041;28;20197;-62
2024/01/15 00:58:22;;;;;;;3.93;3.67;;;2.40;99.90;;;;;;5039525;28;20217;-62
2024/01/15 01:00:51;;;;;;;4.73;3.40;;;2.40;99.90;;;;;;5043417;28;20228;-62
2024/01/15 01:03:19;;;;;;;6.80;3.97;;;2.30;99.90;;;;;;5040737;28;20694;-62
2024/01/15 01:05:49;;;;;;;5.27;3.90;;;2.40;99.90;;;;;;5040553;28;20220;-62
2024/01/15 01:08:19;;;;;;;6.33;4.03;;;2.40;99.90;;;;;;5038188;28;20200;-62
2024/01/15 01:10:47;;;;;;;7.47;4.40;;;2.40;99.90;;;;;;5047973;28;20208;-62
2024/01/15 01:13:15;;;;;;;6.60;4.33;;;2.30;99.90;;;;;;5044399;28;20236;-62
2024/01/15 01:15:44;;;;;;;7.40;4.10;;;2.30;99.90;;;;;;5042736;28;20220;-62
2024/01/15 01:18:12;;;;;;;7.13;4.30;;;2.30;99.90;;;;;;5048341;28;20220;-62
2024/01/15 01:20:41;;;;;;;4.60;4.20;;;2.20;99.90;;;;;;5047165;28;20239;-62
2024/01/15 01:23:09;;;;;;;5.23;4.73;;;2.20;99.90;;;;;;5041441;28;20208;-62
2024/01/15 01:25:39;;;;;;;4.90;4.07;;;2.20;99.90;;;;;;5044203;28;20189;-62
2024/01/15 01:28:07;;;;;;;6.30;3.60;;;2.20;99.90;;;;;;5047972;28;20266;-63
2024/01/15 01:30:35;;;;;;;8.67;3.80;;;2.10;99.90;;;;;;5045452;28;20593;-62
2024/01/15 01:33:04;;;;;;;6.17;4.00;;;2.10;99.90;;;;;;5047358;28;20225;-62
2024/01/15 01:35:32;;;;;;;4.47;4.13;;;2.10;99.90;;;;;;5047718;28;20679;-62
2024/01/15 01:38:01;;;;;;;5.67;4.20;;;2.10;99.90;;;;;;5044510;28;20886;-62
2024/01/15 01:40:29;;;;;;;7.70;4.30;;;2.10;99.90;;;;;;5046302;28;20275;-62
2024/01/15 01:42:59;;;;;;;6.63;4.50;;;2.10;99.90;;;;;;5042644;28;20224;-63
2024/01/15 01:45:27;;;;;;;7.37;4.30;;;2.10;99.90;;;;;;5045036;28;20216;-62
2024/01/15 01:47:55;;;;;;;7.63;4.30;;;2.10;99.90;;;;;;5045920;28;20296;-62
2024/01/15 01:50:24;;;;;;;7.33;4.63;;;2.10;99.90;;;;;;5047573;28;20228;-62
2024/01/15 01:52:53;;;;;;;7.10;4.40;;;2.10;99.90;;;;;;5044863;28;20211;-62
2024/01/15 01:55:22;;;;;;;9.33;4.17;;;2.10;99.90;;;;;;5043733;28;20217;-62
2024/01/15 01:57:51;;;;;;;8.57;4.87;;;2.10;99.90;;;;;;5039784;28;20279;-62
2024/01/15 02:00:21;;;;;;;9.10;4.63;;;2.10;99.90;;;;;;5044967;28;20209;-62
2024/01/15 02:02:50;;;;;;;5.80;4.90;;;2.10;99.90;;;;;;5046512;28;20241;-62
2024/01/15 02:05:20;;;;;;;7.50;4.50;;;2.00;99.90;;;;;;5044784;28;20185;-62
2024/01/15 02:07:48;;;;;;;6.13;4.30;;;2.00;99.90;;;;;;5046708;28;20199;-62
2024/01/15 02:10:17;;;;;;;5.43;4.53;;;2.00;99.90;;;;;;5042642;28;20221;-62
2024/01/15 02:12:48;;;;;;;9.67;4.20;;;2.00;99.90;;;;;;5042466;28;20232;-62
2024/01/15 02:15:17;;;;;;;6.30;4.33;;;2.00;99.90;;;;;;5047948;28;20227;-62
2024/01/15 02:18:03;;;;;;;6.63;4.53;;;1.90;99.90;;;;;;5045101;28;20225;-62
2024/01/15 02:20:33;;;;;;;7.90;4.20;;;1.80;99.90;;;;;;5046010;28;20546;-62
2024/01/15 02:23:11;;;;;;;8.33;4.50;;;1.80;99.90;;;;;;5043189;28;20251;-62
2024/01/15 02:25:42;;;;;;;9.07;4.53;;;1.90;99.90;;;;;;5043592;28;20213;-62
2024/01/15 02:28:11;;;;;;;7.17;4.67;;;1.90;99.90;;;;;;5042017;28;20296;-62
2024/01/15 02:30:40;;;;;;;9.40;4.30;;;1.90;99.90;;;;;;5041903;28;20223;-62
2024/01/15 02:33:10;;;;;;;6.50;4.77;;;1.90;99.90;;;;;;5041875;28;20217;-62
2024/01/15 02:35:38;;;;;;;4.87;4.47;;;1.90;99.90;;;;;;5045762;28;20681;-62
2024/01/15 02:38:09;;;;;;;7.23;4.40;;;2.00;99.90;;;;;;5045092;28;20196;-62
2024/01/15 02:40:37;;;;;;;7.57;4.50;;;1.90;99.90;;;;;;5045695;28;20201;-63
2024/01/15 02:43:05;;;;;;;5.10;4.13;;;2.00;99.90;;;;;;5039863;28;20254;-62
2024/01/15 02:45:33;;;;;;;4.97;4.50;;;1.90;99.90;;;;;;5042130;28;20610;-62
2024/01/15 02:48:02;;;;;;;6.53;4.97;;;1.90;99.90;;;;;;5042915;28;20231;-62
2024/01/15 02:50:30;;;;;;;5.13;4.40;;;1.90;99.90;;;;;;5043464;28;20706;-62
2024/01/15 02:52:59;;;;;;;6.87;4.63;;;1.90;99.90;;;;;;5042704;28;20873;-62
2024/01/15 02:55:29;;;;;;;4.80;4.47;;;2.00;99.90;;;;;;5044618;28;20227;-62
2024/01/15 02:57:57;;;;;;;4.50;4.10;;;2.00;99.90;;;;;;5043664;28;20221;-62
2024/01/15 03:00:26;;;;;;;7.10;4.47;;;2.00;99.90;;;;;;5041622;28;20216;-62
2024/01/15 03:02:54;;;;;;;5.67;4.23;;;2.00;99.90;;;;;;5039916;28;20243;-62
2024/01/15 03:05:22;;;;;;;4.97;4.40;;;2.00;99.90;;;;;;5044900;28;20232;-62
2024/01/15 03:07:51;;;;;;;4.90;4.23;;;1.90;99.90;;;;;;5043964;28;20207;-62
2024/01/15 03:10:19;;;;;;;9.30;4.50;;;1.90;99.90;;;;;;5046221;28;20308;-62
2024/01/15 03:12:49;;;;;;;8.47;4.67;;;1.90;99.90;;;;;;5045540;28;20225;-62
2024/01/15 03:15:18;;;;;;;5.87;3.87;;;1.90;99.90;;;;;;5043530;28;20225;-62
2024/01/15 03:17:46;;;;;;;9.53;4.40;;;1.90;99.90;;;;;;5042496;28;20327;-62
2024/01/15 03:20:15;;;;;;;9.47;4.40;;;2.00;99.90;;;;;;5042707;28;20200;-62
2024/01/15 03:22:43;;;;;;;4.87;4.27;;;2.00;99.90;;;;;;5040197;28;20254;-62
2024/01/15 03:25:11;;;;;;;8.40;4.23;;;2.00;99.90;;;;;;5045161;28;20597;-62
2024/01/15 03:27:39;;;;;;;4.97;3.63;;;2.00;99.90;;;;;;5041931;28;20344;-62
2024/01/15 03:30:10;;;;;;;7.60;4.70;;;2.10;99.90;;;;;;5044587;28;20270;-62
2024/01/15 03:32:39;;;;;;;4.43;4.00;;;2.00;99.90;;;;;;5042179;28;20225;-62
2024/01/15 03:35:08;;;;;;;10.00;3.90;;;2.10;99.90;;;;;;5045610;28;20276;-62
2024/01/15 03:37:36;;;;;;;6.27;4.27;;;2.10;99.90;;;;;;5040240;28;20200;-63
2024/01/15 03:40:09;;;;;;;4.37;3.97;;;2.10;99.90;;;;;;5041768;28;20223;-62
2024/01/15 03:42:37;;;;;;;8.33;3.90;;;2.10;99.90;;;;;;5046871;28;20220;-62
2024/01/15 03:45:06;;;;;;;6.00;4.00;;;2.10;99.90;;;;;;5044939;28;20212;-62
2024/01/15 03:47:36;;;;;;;7.63;4.57;;;2.10;99.90;;;;;;5035232;28;20222;-62
2024/01/15 03:50:05;;;;;;;16.30;4.43;;;2.20;99.90;;;;;;5044541;28;20639;-62
2024/01/15 03:52:33;;;;;;;13.17;4.10;;;2.20;99.90;;;;;;5043390;28;20220;-62
2024/01/15 03:55:01;;;;;;;5.70;4.23;;;2.20;99.90;;;;;;5045470;28;20286;-62
2024/01/15 03:57:30;;;;;;;7.90;4.23;;;2.30;99.90;;;;;;5045131;28;20221;-62
2024/01/15 03:59:58;;;;;;;9.03;3.83;;;2.20;99.90;;;;;;5042626;28;20805;-62
2024/01/15 04:02:27;;;;;;;4.83;4.43;;;2.20;99.90;;;;;;5045026;28;20216;-62
2024/01/15 04:04:57;;;;;;;5.13;4.27;;;2.20;99.90;;;;;;5043710;28;20224;-62
2024/01/15 04:07:25;;;;;;;7.03;4.13;;;2.20;99.90;;;;;;5044683;28;20220;-62
2024/01/15 04:09:53;;;;;;;7.00;3.50;;;2.20;99.90;;;;;;5041354;28;20232;-62
2024/01/15 04:12:22;;;;;;;4.10;3.80;;;2.20;99.90;;;;;;5046119;28;20217;-62
2024/01/15 04:14:50;;;;;;;5.53;3.70;;;2.20;99.90;;;;;;5044216;28;20220;-62
2024/01/15 04:17:18;;;;;;;10.30;3.30;;;2.20;99.90;;;;;;5045607;28;20196;-62
2024/01/15 04:19:47;;;;;;;7.57;3.37;;;2.20;99.90;;;;;;5046056;28;20184;-62
2024/01/15 04:22:17;;;;;;;4.60;3.13;;;2.20;99.90;;;;;;5041699;28;20699;-62
2024/01/15 04:24:46;;;;;;;7.27;2.37;;;2.20;99.90;;;;;;5040306;28;20225;-62
2024/01/15 04:27:14;;;;;;;7.83;2.53;;;2.20;99.90;;;;;;5042787;28;20222;-62
2024/01/15 04:29:44;;;;;;;6.93;2.87;;;2.20;99.90;;;;;;5039202;28;20228;-62
2024/01/15 04:32:12;;;;;;;3.73;2.80;;;2.10;99.90;;;;;;5046040;28;20205;-62
2024/01/15 04:34:41;;;;;;;3.80;2.03;;;2.10;99.90;;;;;;5045303;28;20536;-62
2024/01/15 04:37:09;;;;;;;2.57;2.20;;;2.10;99.90;;;;;;5037229;28;20273;-62
2024/01/15 04:39:39;;;;;;;4.10;2.47;;;2.10;99.90;;;;;;5041915;28;20913;-62
2024/01/15 04:42:07;;;;;;;4.37;2.73;;;2.00;99.90;;;;;;5043475;28;20213;-62
2024/01/15 04:44:35;;;;;;;9.87;2.57;;;2.00;99.90;;;;;;5041263;28;20217;-62
2024/01/15 04:47:04;;;;;;;9.53;2.47;;;2.00;99.90;;;;;;5047793;28;20276;-62
2024/01/15 04:49:32;;;;;;;2.40;2.20;;;1.90;99.90;;;;;;5048877;28;20199;-63
2024/01/15 04:52:01;;;;;;;3.57;2.17;;;1.90;99.90;;;;;;5044217;28;20225;-62
2024/01/15 04:54:29;;;;;;;4.97;2.40;;;1.90;99.90;;;;;;5045706;28;20629;-62
2024/01/15 04:56:58;;;;;;;3.77;2.43;;;1.90;99.90;;;;;;5045280;28;20347;-62
2024/01/15 04:59:26;;;;;;;9.03;2.60;;;1.90;99.90;;;;;;5046056;28;20221;-62
2024/01/15 05:01:55;;;;;;;3.87;2.37;;;1.90;99.90;;;;;;5042639;28;20197;-62
2024/01/15 05:04:24;;;;;;;5.63;2.50;;;1.80;99.90;;;;;;5048702;28;20347;-62
2024/01/15 05:06:53;;;;;;;7.10;2.30;;;1.80;99.90;;;;;;5049588;28;20266;-62
2024/01/15 05:09:21;;;;;;;6.67;2.30;;;1.90;99.90;;;;;;5045266;28;20233;-62
2024/01/15 05:11:49;;;;;;;2.50;2.10;;;1.80;99.90;;;;;;5044253;28;20660;-62
2024/01/15 05:14:19;;;;;;;3.20;2.53;;;1.80;99.90;;;;;;5047840;28;20200;-62
2024/01/15 05:16:51;;;;;;;3.13;2.33;;;1.80;99.90;;;;;;5047198;28;20665;-62
2024/01/15 05:19:19;;;;;;;9.53;2.63;;;1.80;99.90;;;;;;5045354;28;20221;-62
2024/01/15 05:21:48;;;;;;;5.80;2.10;;;1.80;99.90;;;;;;5044361;28;20541;-62
2024/01/15 05:24:16;;;;;;;6.53;2.40;;;1.90;99.90;;;;;;5043767;28;20295;-62
2024/01/15 05:26:45;;;;;;;5.87;2.10;;;1.90;99.90;;;;;;5046778;28;20228;-62
2024/01/15 05:29:14;;;;;;;4.63;1.93;;;1.80;99.90;;;;;;5048711;28;20200;-62
2024/01/15 05:31:44;;;;;;;5.60;2.20;;;1.80;99.90;;;;;;5040874;28;20201;-62
2024/01/15 05:34:12;;;;;;;2.37;1.83;;;1.80;99.90;;;;;;5044916;28;20217;-62
2024/01/15 05:36:40;;;;;;;2.03;1.93;;;1.70;99.90;;;;;;5043120;28;20221;-62
2024/01/15 05:39:09;;;;;;;4.83;2.20;;;1.70;99.90;;;;;;5042282;28;20229;-62
2024/01/15 05:41:37;;;;;;;3.27;2.20;;;1.60;99.90;;;;;;5042766;28;20271;-62
2024/01/15 05:44:05;;;;;;;3.77;2.20;;;1.60;99.90;;;;;;5043708;28;20639;-61
2024/01/15 05:46:33;;;;;;;6.83;2.53;;;1.50;99.90;;;;;;5047383;28;20200;-62
2024/01/15 05:49:02;;;;;;;10.40;2.57;;;1.50;99.90;;;;;;5045018;28;20216;-62
2024/01/15 05:51:31;;;;;;;6.07;3.13;;;1.40;99.90;;;;;;5042146;28;20217;-62
2024/01/15 05:53:59;;;;;;;2.40;2.20;;;1.40;99.90;;;;;;5043023;28;20233;-62
2024/01/15 05:56:28;;;;;;;3.90;2.57;;;1.40;99.90;;;;;;5044683;28;20318;-62
2024/01/15 05:58:56;;;;;;;5.90;2.60;;;1.30;99.90;;;;;;5044587;28;20201;-62
2024/01/15 06:01:24;;;;;;;6.43;2.90;;;1.30;99.90;;;;;;5045967;28;20223;-62
2024/01/15 06:03:53;;;;;;;7.93;3.00;;;1.30;99.90;;;;;;5043465;28;20282;-62
2024/01/15 06:06:23;;;;;;;4.37;3.03;;;1.30;99.90;;;;;;5045198;28;20240;-62
2024/01/15 06:08:51;;;;;;;5.03;2.70;;;1.20;99.90;;;;;;5045040;28;20239;-62
2024/01/15 06:11:19;;;;;;;9.30;3.40;;;1.20;99.90;;;;;;5049956;28;20297;-62
2024/01/15 06:13:48;;;;;;;6.93;3.00;;;1.10;99.90;;;;;;5045435;28;20221;-62
2024/01/15 06:16:16;;;;;;;7.00;3.13;;;1.10;99.90;;;;;;5041430;28;20271;-62
2024/01/15 06:18:45;;;;;;;7.50;3.17;;;1.10;99.90;;;;;;5044196;28;21452;-62
2024/01/15 06:21:14;;;;;;;10.23;3.60;;;1.00;99.90;;;;;;5047196;28;20216;-62
2024/01/15 06:23:44;;;;;;;7.40;3.33;;;1.00;99.90;;;;;;5040328;28;20220;-62
2024/01/15 06:26:13;;;;;;;9.23;3.10;;;0.90;99.90;;;;;;5047022;28;20222;-62
2024/01/15 06:28:41;;;;;;;6.57;3.37;;;0.90;99.90;;;;;;5046340;28;20196;-62
2024/01/15 06:31:09;;;;;;;6.63;2.80;;;0.90;99.90;;;;;;5047023;28;20224;-62
2024/01/15 06:33:38;;;;;;;3.10;2.77;;;0.80;99.90;;;;;;5040334;28;20668;-62
2024/01/15 06:36:07;;;;;;;8.17;2.60;;;0.90;99.90;;;;;;5046002;28;20254;-62
2024/01/15 06:38:36;;;;;;;10.43;3.10;;;0.90;99.90;;;;;;5043047;28;20229;-62
2024/01/15 06:41:06;;;;;;;6.13;2.93;;;0.80;99.90;;;;;;5042509;28;20193;-62
2024/01/15 06:43:34;;;;;;;6.20;2.57;;;0.80;99.90;;;;;;5044595;28;20512;-62
2024/01/15 06:46:02;;;;;;;5.97;2.73;;;0.70;99.90;;;;;;5044577;28;20212;-62
2024/01/15 06:48:34;;;;;;;7.60;3.30;;;0.70;99.90;;;;;;5046737;28;20216;-62
2024/01/15 06:51:03;;;;;;;15.80;3.27;;;0.70;99.90;;;;;;5043479;28;20216;-62
2024/01/15 06:53:32;;;;;;;9.20;3.23;;;0.70;99.90;;;;;;5044861;28;20216;-62
2024/01/15 06:56:00;;;;;;;8.10;3.83;;;0.70;99.90;;;;;;5042729;28;20558;-62
2024/01/15 06:58:31;;;;;;;12.07;3.47;;;0.70;99.90;;;;;;5045860;28;20212;-62
2024/01/15 07:01:00;;;;;;;11.27;3.83;;;0.70;99.90;;;;;;5044142;28;20213;-62
2024/01/15 07:03:30;;;;;;;4.50;3.00;;;0.70;99.90;;;;;;5035105;28;20255;-62
2024/01/15 07:05:58;;;;;;;12.07;3.83;;;0.70;99.90;;;;;;5041949;28;20702;-60
2024/01/15 07:08:27;;;;;;;5.67;2.90;;;0.70;99.90;;;;;;5045759;28;20297;-62
2024/01/15 07:10:56;;;;;;;8.47;3.47;;;0.80;99.90;;;;;;5042041;28;21061;-62
2024/01/15 07:13:24;;;;;;;5.83;3.10;;;0.80;99.90;;;;;;5042832;28;20217;-62
2024/01/15 07:15:54;;;;;;;7.67;3.20;;;0.70;99.90;;;;;;5045511;28;20217;-62
2024/01/15 07:18:23;;;;;;;9.17;3.80;;;0.70;99.90;;;;;;5040319;28;20242;-62
2024/01/15 07:20:52;;;;;;;7.67;3.40;;;0.60;99.90;;;;;;5037506;28;20690;-62
2024/01/15 07:23:21;;;;;;;8.73;2.83;;;0.60;99.90;;;;;;5040875;28;20227;-62
2024/01/15 07:25:49;;;;;;;9.43;3.23;;;0.60;99.90;;;;;;5042495;28;20610;-62
2024/01/15 07:28:17;;;;;;;9.83;3.53;;;0.60;99.90;;;;;;5037252;28;20276;-62
2024/01/15 07:30:45;;;;;;;16.20;4.43;;;0.60;99.90;;;;;;5043542;28;20312;-62
2024/01/15 07:33:15;;;;;;;10.27;3.50;;;0.60;99.90;;;;;;5041377;28;20634;-62
2024/01/15 07:35:44;;;;;;;17.97;4.13;;;0.70;99.90;;;;;;5049217;28;20241;-62
2024/01/15 07:38:12;;;;;;;9.17;3.53;;;0.60;99.90;;;;;;5024376;28;20209;-62
2024/01/15 07:40:41;;;;;;;11.40;3.63;;;0.70;99.90;;;;;;5042353;28;20223;-60
2024/01/15 07:43:09;;;;;;;15.63;3.87;;;0.70;99.90;;;;;;5040212;28;20220;-60
2024/01/15 07:45:37;;;;;;;11.83;4.47;;;0.70;99.90;;;;;;5041686;28;20224;-60
2024/01/15 07:48:06;;;;;;;12.10;3.40;;;0.60;99.90;;;;;;5042862;28;20235;-61
2024/01/15 07:50:36;;;;;;;7.90;3.63;;;0.60;99.90;;;;;;5043758;28;20222;-61
2024/01/15 07:53:05;;;;;;;12.63;4.73;;;0.70;99.90;;;;;;5040767;28;20196;-61
2024/01/15 07:55:33;;;;;;;9.57;3.83;;;0.70;99.90;;;;;;5042546;28;20512;-61
2024/01/15 07:58:01;;;;;;;9.30;4.07;;;0.70;99.90;;;;;;5042282;28;20278;-61
2024/01/15 08:00:43;;;;;;;10.37;3.93;;;0.70;99.90;;;;;;5041593;28;20371;-61
2024/01/15 08:03:12;;;;;;;14.97;4.83;;;0.60;99.90;;;;;;5044732;28;20327;-61
2024/01/15 08:05:42;;;;;;;17.43;4.20;;;0.60;99.90;;;;;;5036790;28;20231;-61
2024/01/15 08:08:10;;;;;;;12.47;3.67;;;0.60;99.90;;;;;;5043871;28;20193;-61
2024/01/15 08:10:38;;;;;;;7.23;3.67;;;0.60;99.90;;;;;;5043991;28;20211;-61
2024/01/15 08:13:09;;;;;;;13.73;4.50;;;0.60;99.90;;;;;;5042636;28;20244;-61
2024/01/15 08:15:37;;;;;;;7.33;3.30;;;0.60;99.90;;;;;;5043261;28;20231;-61
2024/01/15 08:18:06;;;;;;;14.77;4.33;;;0.60;99.90;;;;;;5043934;28;20307;-61
2024/01/15 08:20:34;;;;;;;16.30;4.47;;;0.70;99.90;;;;;;5047567;28;20221;-61
2024/01/15 08:23:06;;;;;;;8.27;3.60;;;0.70;99.90;;;;;;5047734;28;20196;-60
2024/01/15 08:25:35;;;;;;;10.67;3.70;;;0.70;99.90;;;;;;5045972;28;20689;-61
2024/01/15 08:28:03;;;;;;;8.70;3.63;;;0.70;99.90;;;;;;5043976;28;20221;-61
2024/01/15 08:30:31;;;;;;;13.50;4.53;;;0.70;99.90;;;;;;5042039;28;20766;-61
2024/01/15 08:33:01;;;;;;;17.53;4.00;;;0.70;99.90;;;;;;5048152;28;20710;-61
2024/01/15 08:35:38;;;;;;;8.70;3.67;;;0.80;99.90;;;;;;5044799;28;20596;-61
2024/01/15 08:38:08;;;;;;;11.17;3.50;;;0.80;99.90;;;;;;5049582;28;20628;-61
2024/01/15 08:40:37;;;;;;;10.40;4.20;;;0.90;99.90;;;;;;5047001;28;20201;-61
2024/01/15 08:43:06;;;;;;;16.77;3.70;;;0.90;99.90;;;;;;5046410;28;20223;-61
2024/01/15 08:45:35;;;;;;;10.93;3.93;;;0.90;99.90;;;;;;5048476;28;20224;-62
2024/01/15 08:48:04;;;;;;;9.57;3.00;;;0.90;99.90;;;;;;5044077;28;20236;-62
2024/01/15 08:50:34;;;;;;;8.40;2.63;;;0.90;99.90;;;;;;5045969;28;20245;-60
2024/01/15 08:53:02;;;;;;;6.57;2.53;;;0.90;99.90;;;;;;5045667;28;20238;-60
2024/01/15 08:55:32;;;;;;;6.27;2.80;;;1.00;99.90;;;;;;5045618;28;20216;-60
2024/01/15 08:58:01;;;;;;;4.83;2.57;;;1.00;99.90;;;;;;5042113;28;20220;-60
2024/01/15 09:00:29;;;;;;;6.07;2.53;;;1.10;99.90;;;;;;5046779;28;20220;-61
2024/01/15 09:02:57;;;;;;;5.13;2.37;;;1.00;99.90;;;;;;5045054;28;20291;-60
2024/01/15 09:05:26;;;;;;;8.57;3.23;;;1.10;99.90;;;;;;5043210;28;20247;-61
2024/01/15 09:07:54;;;;;;;7.00;2.50;;;1.10;99.90;;;;;;5045648;28;20866;-61
2024/01/15 09:10:23;;;;;;;7.20;2.70;;;1.10;99.90;;;;;;5048092;28;20223;-61
2024/01/15 09:12:53;;;;;;;8.57;2.60;;;1.20;99.90;;;;;;5044115;28;20768;-61
2024/01/15 09:15:21;;;;;;;4.63;2.77;;;1.30;99.90;;;;;;5045611;28;20633;-61
2024/01/15 09:17:50;;;;;;;6.80;3.07;;;1.40;99.90;;;;;;5045722;28;20586;-61
2024/01/15 09:20:18;;;;;;;8.03;2.70;;;1.50;99.90;;;;;;5048596;28;20189;-61
2024/01/15 09:22:46;;;;;;;6.53;3.00;;;1.70;99.90;;;;;;5048096;28;20219;-61
2024/01/15 09:25:15;;;;;;;5.17;2.40;;;1.80;99.90;;;;;;5047343;28;20591;-61
2024/01/15 09:27:43;;;;;;;6.17;2.87;;;1.90;99.90;;;;;;5046743;28;20684;-61
2024/01/15 09:30:14;;;;;;;8.30;2.50;;;2.00;99.90;;;;;;5041847;28;20307;-61
2024/01/15 09:32:42;;;;;;;9.97;2.77;;;2.10;99.90;;;;;;5046089;28;20302;-62
2024/01/15 09:35:11;;;;;;;10.40;3.10;;;2.30;99.90;;;;;;5045916;28;20236;-61
2024/01/15 09:37:40;;;;;;;9.63;2.87;;;2.40;99.90;;;;;;5042227;28;20276;-62
2024/01/15 09:40:16;;;;;;;8.30;2.97;;;2.50;99.90;;;;;;5045019;28;20263;-61
2024/01/15 09:42:45;;;;;;;4.30;2.30;;;2.60;99.90;;;;;;5045517;28;20828;-61
2024/01/15 09:45:16;;;;;;;10.43;2.93;;;2.70;99.90;;;;;;5045531;28;20222;-61
2024/01/15 09:47:44;;;;;;;4.37;2.40;;;2.90;99.90;;;;;;5043939;28;20275;-61
2024/01/15 09:50:14;;;;;;;4.63;2.27;;;3.10;99.90;;;;;;5042707;28;20204;-61
2024/01/15 09:52:45;;;;;;;3.90;2.30;;;3.20;99.90;;;;;;5045227;28;20206;-61
2024/01/15 09:55:15;;;;;;;4.50;2.83;;;3.40;99.90;;;;;;5043325;28;20217;-61
2024/01/15 09:57:45;;;;;;;8.63;2.53;;;3.50;96.60;;;;;;5043897;28;20220;-61
2024/01/15 10:00:18;;;;;;;8.03;2.60;;;3.70;94.50;;;;;;5046234;28;20224;-61
2024/01/15 10:02:46;;;;;;;5.77;2.60;;;3.80;82.00;;;;;;5047830;28;20228;-60
2024/01/15 10:05:15;;;;;;;5.83;2.17;;;4.10;84.00;;;;;;5045895;28;20188;-61
2024/01/15 10:07:44;;;;;;;8.93;2.30;;;4.30;76.80;;;;;;5044716;28;20205;-61
2024/01/15 10:10:13;;;;;;;11.47;2.43;;;4.50;52.30;;;;;;5045513;28;20319;-61
2024/01/15 10:12:41;;;;;;;14.37;3.00;;;4.70;52.50;;;;;;5044343;28;20302;-61
2024/01/15 10:15:11;;;;;;;6.13;3.17;;;4.90;43.60;;;;;;5044396;28;20224;-61
2024/01/15 10:17:42;;;;;;;10.97;3.60;;;5.10;41.60;;;;;;5047637;28;20316;-62
2024/01/15 10:20:12;;;;;;;5.77;2.50;;;4.90;24.20;;;;;;5046983;28;20189;-62
2024/01/15 10:22:43;;;;;;;4.60;2.20;;;4.80;41.90;;;;;;5043909;28;20197;-61
2024/01/15 10:25:12;;;;;;;6.43;2.17;;;4.90;38.40;;;;;;5047395;28;20933;-62
2024/01/15 10:27:42;;;;;;;3.33;2.20;;;5.00;37.70;;;;;;5044456;28;20216;-61
2024/01/15 10:30:13;;;;;;;5.60;2.73;;;5.10;33.70;;;;;;5046842;28;20213;-62
2024/01/15 10:32:58;;;;;;;4.67;2.03;;;5.20;33.20;;;;;;5045827;28;20216;-61
2024/01/15 10:35:29;;;;;;;7.47;2.10;;;5.20;33.10;;;;;;5043522;28;20692;-61
2024/01/15 10:37:57;;;;;;;6.57;2.23;;;5.30;31.70;;;;;;5045603;28;20193;-61
2024/01/15 10:40:25;;;;;;;3.90;2.27;;;5.30;25.00;;;;;;5044426;28;20840;-62
2024/01/15 10:42:54;;;;;;;7.57;2.50;;;5.30;17.40;;;;;;5044025;28;20230;-60
2024/01/15 10:45:23;;;;;;;5.13;1.80;;;5.40;27.50;;;;;;5055989;28;20313;-62
2024/01/15 10:47:54;;;;;;;7.20;2.17;;;5.40;11.70;;;;;;5047810;28;20220;-61
2024/01/15 10:50:23;;;;;;;7.63;2.00;;;5.20;14.90;;;;;;5040395;28;20225;-61
2024/01/15 10:52:52;;;;;;;4.37;2.10;;;5.10;22.30;;;;;;5044395;28;20189;-61
2024/01/15 10:55:24;;;;;;;8.00;2.13;;;5.10;25.70;;;;;;5042500;28;20215;-61
2024/01/15 10:57:56;;;;;;;5.97;2.37;;;5.00;12.20;;;;;;5044381;28;20741;-61
2024/01/15 11:00:25;;;;;;;13.03;1.97;;;4.80;1.00;;;;;;5044415;28;20283;-61
2024/01/15 11:02:55;;;;;;;5.13;2.07;;;5.00;1.00;;;;;;5043401;28;20224;-61
2024/01/15 11:05:24;;;;;;;6.07;2.10;;;5.20;1.00;;;;;;5039801;28;20671;-62
2024/01/15 11:07:56;;;;;;;6.57;1.90;;;5.30;1.00;;;;;;5044656;28;20193;-62
2024/01/15 11:10:40;;;;;;;4.50;1.67;;;5.20;1.00;;;;;;5040750;28;20216;-62
2024/01/15 11:13:15;;;;;;;4.20;2.07;;;5.10;1.00;;;;;;5041908;28;20675;-62
2024/01/15 11:16:02;;;;;;;5.83;3.40;;;5.00;1.00;;;;;;5042030;28;20598;-61
2024/01/15 11:18:34;;;;;;;7.63;2.30;;;4.80;1.00;;;;;;5043036;28;20237;-61
2024/01/15 11:21:21;;;;;;;3.30;2.07;;;4.90;1.00;;;;;;5059924;28;20219;-62
2024/01/15 11:23:51;;;;;;;8.43;2.27;;;5.20;1.00;;;;;;5045224;28;20225;-62
2024/01/15 11:26:36;;;;;;;3.60;1.70;;;5.40;1.00;;;;;;5048098;28;20275;-62
2024/01/15 11:29:09;;;;;;;5.77;2.17;;;5.40;1.00;;;;;;5048064;28;20219;-62
2024/01/15 11:32:00;;;;;;;8.07;2.33;;;5.50;1.00;;;;;;5045565;28;20201;-62
2024/01/15 11:34:58;;;;;;;4.53;2.20;;;5.60;1.00;;;;;;5042435;28;20217;-62
2024/01/15 11:37:28;;;;;;;4.00;2.10;;;5.70;1.00;;;;;;5043803;28;20224;-62
2024/01/15 11:40:03;;;;;;;5.20;2.60;;;5.70;1.00;;;;;;5037902;28;20244;-62
2024/01/15 11:42:34;;;;;;;5.30;2.60;;;5.80;1.00;;;;;;5042776;28;20258;-61
2024/01/15 11:45:03;;;;;;;7.83;2.23;;;5.80;1.00;;;;;;5043238;28;20248;-61
2024/01/15 11:48:06;;;;;;;8.20;2.57;;;5.90;1.00;;;;;;5043191;28;20228;-62
2024/01/15 11:50:39;;;;;;;8.23;1.93;;;6.00;1.00;;;;;;5038621;28;20225;-61
2024/01/15 11:53:18;;;;;;;8.20;2.67;;;6.10;1.00;;;;;;5045364;28;20200;-61
2024/01/15 11:55:48;;;;;;;9.87;2.43;;;6.20;1.00;;;;;;5043408;28;20208;-62
2024/01/15 11:58:17;;;;;;;13.33;2.40;;;6.20;1.00;;;;;;5041866;28;20281;-62
2024/01/15 12:00:48;;;;;;;2.63;2.00;;;6.00;1.00;;;;;;5041366;28;20228;-61
2024/01/15 12:03:17;;;;;;;8.67;2.43;;;5.90;1.00;;;;;;5043886;28;20232;-61
2024/01/15 12:05:48;;;;;;;3.00;2.03;;;6.00;1.00;;;;;;5040682;28;20235;-62
2024/01/15 12:08:21;;;;;;;7.73;1.90;;;6.20;1.00;;;;;;5045159;28;20189;-62
2024/01/15 12:10:51;;;;;;;3.30;1.80;;;6.00;1.00;;;;;;5038016;28;20228;-61
2024/01/15 12:13:20;;;;;;;5.30;2.00;;;5.60;1.00;;;;;;5042025;28;20234;-62
2024/01/15 12:15:48;;;;;;;3.50;2.10;;;5.30;1.00;;;;;;5042352;28;20224;-61
2024/01/15 12:18:18;;;;;;;6.70;1.90;;;5.00;1.00;;;;;;5043825;28;20556;-61
2024/01/15 12:20:48;;;;;;;6.57;2.70;;;4.90;1.00;;;;;;5041979;28;20237;-62
2024/01/15 12:23:18;;;;;;;5.20;2.10;;;4.90;1.00;;;;;;5042428;28;20287;-62
2024/01/15 12:25:47;;;;;;;8.70;1.93;;;5.20;1.00;;;;;;5048076;28;20872;-62
2024/01/15 12:28:16;;;;;;;4.80;2.00;;;5.60;1.00;;;;;;5043785;28;20719;-62
2024/01/15 12:30:49;;;;;;;5.40;2.20;;;5.80;1.00;;;;;;5044600;28;20244;-61
2024/01/15 12:33:20;;;;;;;8.43;1.80;;;5.80;1.00;;;;;;5042364;28;20240;-63
2024/01/15 12:35:53;;;;;;;5.47;2.03;;;5.70;1.00;;;;;;5042910;28;22327;-62
2024/01/15 12:38:22;;;;;;;5.97;1.90;;;5.70;1.00;;;;;;5042042;28;20330;-61
2024/01/15 12:40:50;;;;;;;8.13;2.40;;;5.80;1.00;;;;;;5043181;28;20184;-62
2024/01/15 12:43:20;;;;;;;7.53;1.83;;;5.70;1.00;;;;;;5039685;28;20227;-62
2024/01/15 12:45:48;;;;;;;7.70;2.30;;;5.50;1.00;;;;;;5042238;28;20224;-62
2024/01/15 12:48:17;;;;;;;3.80;2.00;;;5.30;1.00;;;;;;5040481;28;20236;-62
2024/01/15 12:50:47;;;;;;;8.10;3.00;;;5.00;1.00;;;;;;5041133;28;20311;-61
2024/01/15 12:53:17;;;;;;;10.00;2.23;;;5.00;1.00;;;;;;5044007;28;20669;-62
2024/01/15 12:55:46;;;;;;;5.93;2.07;;;5.30;1.00;;;;;;5044835;28;20207;-62
2024/01/15 12:58:14;;;;;;;8.87;2.50;;;5.70;1.00;;;;;;5043737;28;20299;-62
2024/01/15 13:00:46;;;;;;;9.90;2.30;;;5.70;1.00;;;;;;5044567;28;20576;-62
2024/01/15 13:03:15;;;;;;;6.80;2.07;;;5.80;1.00;;;;;;5043275;28;20264;-63
2024/01/15 13:05:45;;;;;;;7.87;2.13;;;5.80;1.00;;;;;;5042766;28;20228;-62
2024/01/15 13:08:13;;;;;;;9.37;2.50;;;5.80;1.00;;;;;;5043937;28;20194;-62
2024/01/15 13:10:44;;;;;;;6.80;2.57;;;5.60;1.00;;;;;;5048384;28;20283;-62